sensor_id;sensor_type;location;lat;lon;timestamp;P1;durP1;ratioP1;P2;durP2;ratioP2
11761;SDS011;5938;47.098;15.474;2022-08-19T00:02:59;118.27;;;113.73;;
11761;SDS011;5938;47.098;15.474;2022-08-19T00:07:02;109.57;;;105.10;;
11761;SDS011;5938;47.098;15.474;2022-08-19T00:11:07;94.77;;;91.20;;
11761;SDS011;5938;47.098;15.474;2022-08-19T00:15:19;88.77;;;85.23;;
11761;SDS011;5938;47.098;15.474;2022-08-19T00:19:25;107.87;;;103.53;;
11761;SDS011;5938;47.098;15.474;2022-08-19T00:23:28;84.73;;;81.37;;
11761;SDS011;5938;47.098;15.474;2022-08-19T00:27:33;88.33;;;85.10;;
11761;SDS011;5938;47.098;15.474;2022-08-19T00:31:36;96.83;;;93.00;;
11761;SDS011;5938;47.098;15.474;2022-08-19T00:35:41;106.63;;;102.73;;
11761;SDS011;5938;47.098;15.474;2022-08-19T00:39:44;77.37;;;74.37;;
11761;SDS011;5938;47.098;15.474;2022-08-19T00:43:59;96.93;;;92.67;;
11761;SDS011;5938;47.098;15.474;2022-08-19T00:48:06;95.63;;;92.10;;
11761;SDS011;5938;47.098;15.474;2022-08-19T00:52:17;97.23;;;93.53;;
11761;SDS011;5938;47.098;15.474;2022-08-19T00:56:23;90.60;;;86.97;;
11761;SDS011;5938;47.098;15.474;2022-08-19T01:00:29;88.47;;;85.03;;
11761;SDS011;5938;47.098;15.474;2022-08-19T01:04:33;63.97;;;61.23;;
11761;SDS011;5938;47.098;15.474;2022-08-19T01:08:38;74.03;;;71.23;;
11761;SDS011;5938;47.098;15.474;2022-08-19T01:12:41;87.37;;;84.20;;
11761;SDS011;5938;47.098;15.474;2022-08-19T01:16:45;89.87;;;86.47;;
11761;SDS011;5938;47.098;15.474;2022-08-19T01:20:49;112.77;;;108.67;;
11761;SDS011;5938;47.098;15.474;2022-08-19T01:24:55;85.50;;;82.00;;
11761;SDS011;5938;47.098;15.474;2022-08-19T01:28:59;74.50;;;71.10;;
11761;SDS011;5938;47.098;15.474;2022-08-19T01:33:05;68.57;;;65.73;;
11761;SDS011;5938;47.098;15.474;2022-08-19T01:37:09;87.33;;;84.03;;
11761;SDS011;5938;47.098;15.474;2022-08-19T01:41:26;65.47;;;62.87;;
11761;SDS011;5938;47.098;15.474;2022-08-19T01:45:31;91.93;;;88.53;;
11761;SDS011;5938;47.098;15.474;2022-08-19T01:49:36;99.13;;;95.00;;
11761;SDS011;5938;47.098;15.474;2022-08-19T01:53:40;87.03;;;83.13;;
11761;SDS011;5938;47.098;15.474;2022-08-19T01:57:47;121.73;;;117.23;;
11761;SDS011;5938;47.098;15.474;2022-08-19T02:01:57;80.03;;;76.60;;
11761;SDS011;5938;47.098;15.474;2022-08-19T02:06:02;100.50;;;96.60;;
11761;SDS011;5938;47.098;15.474;2022-08-19T02:10:07;94.80;;;91.20;;
11761;SDS011;5938;47.098;15.474;2022-08-19T02:14:18;89.30;;;85.90;;
11761;SDS011;5938;47.098;15.474;2022-08-19T02:18:22;82.30;;;79.13;;
11761;SDS011;5938;47.098;15.474;2022-08-19T02:22:28;105.63;;;101.53;;
11761;SDS011;5938;47.098;15.474;2022-08-19T02:26:31;86.63;;;83.00;;
11761;SDS011;5938;47.098;15.474;2022-08-19T02:30:37;105.60;;;101.50;;
11761;SDS011;5938;47.098;15.474;2022-08-19T02:34:40;76.40;;;73.23;;
11761;SDS011;5938;47.098;15.474;2022-08-19T02:38:45;107.93;;;103.63;;
11761;SDS011;5938;47.098;15.474;2022-08-19T02:42:56;94.77;;;91.27;;
11761;SDS011;5938;47.098;15.474;2022-08-19T02:47:01;76.33;;;72.90;;
11761;SDS011;5938;47.098;15.474;2022-08-19T02:51:05;69.07;;;65.83;;
11761;SDS011;5938;47.098;15.474;2022-08-19T02:55:09;98.13;;;94.33;;
11761;SDS011;5938;47.098;15.474;2022-08-19T02:59:12;69.43;;;66.53;;
11761;SDS011;5938;47.098;15.474;2022-08-19T03:03:17;88.90;;;85.67;;
11761;SDS011;5938;47.098;15.474;2022-08-19T03:07:21;88.33;;;85.20;;
11761;SDS011;5938;47.098;15.474;2022-08-19T03:11:27;110.80;;;106.60;;
11761;SDS011;5938;47.098;15.474;2022-08-19T03:15:32;75.73;;;72.47;;
11761;SDS011;5938;47.098;15.474;2022-08-19T03:19:38;73.57;;;70.47;;
11761;SDS011;5938;47.098;15.474;2022-08-19T03:23:42;89.77;;;86.43;;
11761;SDS011;5938;47.098;15.474;2022-08-19T03:27:45;99.53;;;95.53;;
11761;SDS011;5938;47.098;15.474;2022-08-19T03:31:50;100.73;;;96.70;;
11761;SDS011;5938;47.098;15.474;2022-08-19T03:36:06;73.00;;;69.93;;
11761;SDS011;5938;47.098;15.474;2022-08-19T03:40:11;86.57;;;83.17;;
11761;SDS011;5938;47.098;15.474;2022-08-19T03:44:18;96.97;;;93.40;;
11761;SDS011;5938;47.098;15.474;2022-08-19T03:48:23;84.00;;;80.60;;
11761;SDS011;5938;47.098;15.474;2022-08-19T03:52:29;90.33;;;86.83;;
11761;SDS011;5938;47.098;15.474;2022-08-19T03:56:33;101.70;;;97.23;;
11761;SDS011;5938;47.098;15.474;2022-08-19T04:00:37;95.43;;;91.40;;
11761;SDS011;5938;47.098;15.474;2022-08-19T04:04:44;123.63;;;118.47;;
11761;SDS011;5938;47.098;15.474;2022-08-19T04:08:51;103.10;;;98.67;;
11761;SDS011;5938;47.098;15.474;2022-08-19T04:12:55;109.97;;;105.37;;
11761;SDS011;5938;47.098;15.474;2022-08-19T04:16:59;95.83;;;91.77;;
11761;SDS011;5938;47.098;15.474;2022-08-19T04:21:05;109.60;;;105.10;;
11761;SDS011;5938;47.098;15.474;2022-08-19T04:25:11;106.87;;;102.60;;
11761;SDS011;5938;47.098;15.474;2022-08-19T04:29:16;132.47;;;127.37;;
11761;SDS011;5938;47.098;15.474;2022-08-19T04:33:23;130.57;;;125.63;;
11761;SDS011;5938;47.098;15.474;2022-08-19T04:37:30;135.50;;;130.00;;
11761;SDS011;5938;47.098;15.474;2022-08-19T04:41:37;166.93;;;161.33;;
11761;SDS011;5938;47.098;15.474;2022-08-19T04:46:04;141.83;;;136.53;;
11761;SDS011;5938;47.098;15.474;2022-08-19T04:50:10;122.70;;;118.13;;
11761;SDS011;5938;47.098;15.474;2022-08-19T04:54:14;148.93;;;143.27;;
11761;SDS011;5938;47.098;15.474;2022-08-19T04:58:40;146.47;;;140.83;;
11761;SDS011;5938;47.098;15.474;2022-08-19T05:02:45;139.23;;;134.20;;
11761;SDS011;5938;47.098;15.474;2022-08-19T05:06:50;144.67;;;139.47;;
11761;SDS011;5938;47.098;15.474;2022-08-19T05:11:06;120.70;;;116.17;;
11761;SDS011;5938;47.098;15.474;2022-08-19T05:15:16;138.87;;;133.70;;
11761;SDS011;5938;47.098;15.474;2022-08-19T05:19:20;140.23;;;135.53;;
11761;SDS011;5938;47.098;15.474;2022-08-19T05:23:52;152.53;;;146.97;;
11761;SDS011;5938;47.098;15.474;2022-08-19T05:27:56;153.53;;;148.10;;
11761;SDS011;5938;47.098;15.474;2022-08-19T05:32:02;140.73;;;135.63;;
11761;SDS011;5938;47.098;15.474;2022-08-19T05:36:10;165.17;;;158.97;;
11761;SDS011;5938;47.098;15.474;2022-08-19T05:40:15;135.03;;;130.00;;
11761;SDS011;5938;47.098;15.474;2022-08-19T05:44:23;146.10;;;139.90;;
11761;SDS011;5938;47.098;15.474;2022-08-19T05:48:28;163.70;;;157.60;;
11761;SDS011;5938;47.098;15.474;2022-08-19T05:52:32;117.77;;;112.90;;
11761;SDS011;5938;47.098;15.474;2022-08-19T05:56:37;145.47;;;139.73;;
11761;SDS011;5938;47.098;15.474;2022-08-19T06:00:42;106.13;;;101.77;;
11761;SDS011;5938;47.098;15.474;2022-08-19T06:04:48;119.60;;;115.10;;
11761;SDS011;5938;47.098;15.474;2022-08-19T06:08:51;115.07;;;110.50;;
11761;SDS011;5938;47.098;15.474;2022-08-19T06:12:55;122.17;;;117.17;;
11761;SDS011;5938;47.098;15.474;2022-08-19T06:17:01;132.50;;;126.90;;
11761;SDS011;5938;47.098;15.474;2022-08-19T06:21:10;139.20;;;133.50;;
11761;SDS011;5938;47.098;15.474;2022-08-19T06:25:14;134.23;;;129.27;;
11761;SDS011;5938;47.098;15.474;2022-08-19T06:29:19;128.10;;;123.37;;
11761;SDS011;5938;47.098;15.474;2022-08-19T06:33:25;140.00;;;134.67;;
11761;SDS011;5938;47.098;15.474;2022-08-19T06:37:32;116.73;;;112.03;;
11761;SDS011;5938;47.098;15.474;2022-08-19T06:41:42;119.30;;;114.70;;
11761;SDS011;5938;47.098;15.474;2022-08-19T06:45:52;118.30;;;113.70;;
11761;SDS011;5938;47.098;15.474;2022-08-19T06:49:59;108.43;;;104.10;;
11761;SDS011;5938;47.098;15.474;2022-08-19T06:54:08;105.90;;;101.77;;
11761;SDS011;5938;47.098;15.474;2022-08-19T06:58:21;110.30;;;106.00;;
11761;SDS011;5938;47.098;15.474;2022-08-19T07:02:27;96.87;;;93.10;;
11761;SDS011;5938;47.098;15.474;2022-08-19T07:06:31;104.43;;;100.07;;
11761;SDS011;5938;47.098;15.474;2022-08-19T07:10:46;106.47;;;102.47;;
11761;SDS011;5938;47.098;15.474;2022-08-19T07:14:50;108.40;;;104.43;;
11761;SDS011;5938;47.098;15.474;2022-08-19T07:18:55;108.03;;;103.93;;
11761;SDS011;5938;47.098;15.474;2022-08-19T07:22:59;123.40;;;118.77;;
11761;SDS011;5938;47.098;15.474;2022-08-19T07:27:09;99.47;;;95.17;;
11761;SDS011;5938;47.098;15.474;2022-08-19T07:31:16;116.70;;;112.27;;
11761;SDS011;5938;47.098;15.474;2022-08-19T07:35:25;147.97;;;142.70;;
11761;SDS011;5938;47.098;15.474;2022-08-19T07:39:31;167.63;;;161.73;;
11761;SDS011;5938;47.098;15.474;2022-08-19T07:43:39;195.17;;;188.20;;
11761;SDS011;5938;47.098;15.474;2022-08-19T07:47:44;197.67;;;190.93;;
11761;SDS011;5938;47.098;15.474;2022-08-19T07:51:52;214.50;;;206.97;;
11761;SDS011;5938;47.098;15.474;2022-08-19T07:55:57;170.10;;;163.50;;
11761;SDS011;5938;47.098;15.474;2022-08-19T08:00:09;124.20;;;119.43;;
11761;SDS011;5938;47.098;15.474;2022-08-19T08:04:13;81.77;;;78.77;;
11761;SDS011;5938;47.098;15.474;2022-08-19T08:08:34;77.97;;;74.87;;
11761;SDS011;5938;47.098;15.474;2022-08-19T08:12:55;72.60;;;69.40;;
11761;SDS011;5938;47.098;15.474;2022-08-19T08:17:13;63.37;;;60.40;;
11761;SDS011;5938;47.098;15.474;2022-08-19T08:21:37;62.77;;;59.97;;
11761;SDS011;5938;47.098;15.474;2022-08-19T08:25:46;38.07;;;35.73;;
11761;SDS011;5938;47.098;15.474;2022-08-19T08:29:51;37.63;;;35.57;;
11761;SDS011;5938;47.098;15.474;2022-08-19T08:33:56;34.03;;;32.00;;
11761;SDS011;5938;47.098;15.474;2022-08-19T08:38:00;33.10;;;31.27;;
11761;SDS011;5938;47.098;15.474;2022-08-19T08:42:06;35.03;;;33.20;;
11761;SDS011;5938;47.098;15.474;2022-08-19T08:46:19;39.10;;;36.90;;
11761;SDS011;5938;47.098;15.474;2022-08-19T08:50:34;26.13;;;24.50;;
11761;SDS011;5938;47.098;15.474;2022-08-19T08:54:45;23.53;;;22.27;;
11761;SDS011;5938;47.098;15.474;2022-08-19T08:58:56;23.33;;;22.07;;
11761;SDS011;5938;47.098;15.474;2022-08-19T09:03:03;29.33;;;27.70;;
11761;SDS011;5938;47.098;15.474;2022-08-19T09:07:17;25.83;;;24.33;;
11761;SDS011;5938;47.098;15.474;2022-08-19T09:11:39;30.50;;;28.77;;
11761;SDS011;5938;47.098;15.474;2022-08-19T09:15:54;27.67;;;26.17;;
11761;SDS011;5938;47.098;15.474;2022-08-19T09:20:04;30.80;;;28.90;;
11761;SDS011;5938;47.098;15.474;2022-08-19T09:24:16;32.10;;;30.47;;
11761;SDS011;5938;47.098;15.474;2022-08-19T09:28:20;21.73;;;20.23;;
11761;SDS011;5938;47.098;15.474;2022-08-19T09:32:27;25.90;;;24.33;;
11761;SDS011;5938;47.098;15.474;2022-08-19T09:36:33;29.47;;;27.83;;
11761;SDS011;5938;47.098;15.474;2022-08-19T09:40:40;28.63;;;26.93;;
11761;SDS011;5938;47.098;15.474;2022-08-19T09:44:44;33.87;;;32.33;;
11761;SDS011;5938;47.098;15.474;2022-08-19T09:48:49;30.53;;;28.97;;
11761;SDS011;5938;47.098;15.474;2022-08-19T09:52:53;36.07;;;33.93;;
11761;SDS011;5938;47.098;15.474;2022-08-19T09:57:00;32.93;;;31.23;;
11761;SDS011;5938;47.098;15.474;2022-08-19T10:01:09;35.73;;;33.77;;
11761;SDS011;5938;47.098;15.474;2022-08-19T10:05:55;37.60;;;35.77;;
11761;SDS011;5938;47.098;15.474;2022-08-19T10:09:59;35.97;;;33.93;;
11761;SDS011;5938;47.098;15.474;2022-08-19T10:14:05;34.17;;;32.30;;
11761;SDS011;5938;47.098;15.474;2022-08-19T10:18:08;39.03;;;37.03;;
11761;SDS011;5938;47.098;15.474;2022-08-19T10:22:13;35.90;;;34.30;;
11761;SDS011;5938;47.098;15.474;2022-08-19T10:26:21;38.63;;;36.53;;
11761;SDS011;5938;47.098;15.474;2022-08-19T10:30:30;40.43;;;38.33;;
11761;SDS011;5938;47.098;15.474;2022-08-19T10:34:34;40.63;;;38.53;;
11761;SDS011;5938;47.098;15.474;2022-08-19T10:38:50;44.40;;;42.23;;
11761;SDS011;5938;47.098;15.474;2022-08-19T10:42:58;50.90;;;48.57;;
11761;SDS011;5938;47.098;15.474;2022-08-19T10:47:04;44.97;;;42.73;;
11761;SDS011;5938;47.098;15.474;2022-08-19T10:51:26;48.03;;;45.67;;
11761;SDS011;5938;47.098;15.474;2022-08-19T10:55:49;34.83;;;33.17;;
11761;SDS011;5938;47.098;15.474;2022-08-19T11:00:11;31.87;;;30.40;;
11761;SDS011;5938;47.098;15.474;2022-08-19T11:04:17;31.57;;;30.03;;
11761;SDS011;5938;47.098;15.474;2022-08-19T11:08:21;33.87;;;31.80;;
11761;SDS011;5938;47.098;15.474;2022-08-19T11:12:27;33.10;;;31.43;;
11761;SDS011;5938;47.098;15.474;2022-08-19T11:16:31;23.80;;;22.63;;
11761;SDS011;5938;47.098;15.474;2022-08-19T11:20:36;24.97;;;23.57;;
11761;SDS011;5938;47.098;15.474;2022-08-19T11:24:39;26.13;;;24.47;;
11761;SDS011;5938;47.098;15.474;2022-08-19T11:28:43;22.70;;;21.27;;
11761;SDS011;5938;47.098;15.474;2022-08-19T11:32:47;25.83;;;24.13;;
11761;SDS011;5938;47.098;15.474;2022-08-19T11:36:52;24.90;;;23.33;;
11761;SDS011;5938;47.098;15.474;2022-08-19T11:40:59;18.42;;;17.13;;
11761;SDS011;5938;47.098;15.474;2022-08-19T11:45:04;22.23;;;20.87;;
11761;SDS011;5938;47.098;15.474;2022-08-19T11:49:09;24.40;;;22.93;;
11761;SDS011;5938;47.098;15.474;2022-08-19T11:53:16;26.30;;;24.80;;
11761;SDS011;5938;47.098;15.474;2022-08-19T11:57:21;28.13;;;26.37;;
11761;SDS011;5938;47.098;15.474;2022-08-19T12:01:25;26.87;;;25.23;;
11761;SDS011;5938;47.098;15.474;2022-08-19T12:05:29;24.40;;;22.93;;
11761;SDS011;5938;47.098;15.474;2022-08-19T12:09:37;26.93;;;25.33;;
11761;SDS011;5938;47.098;15.474;2022-08-19T12:13:43;26.07;;;24.50;;
11761;SDS011;5938;47.098;15.474;2022-08-19T12:17:47;24.97;;;23.33;;
11761;SDS011;5938;47.098;15.474;2022-08-19T12:21:51;28.97;;;27.47;;
11761;SDS011;5938;47.098;15.474;2022-08-19T12:25:58;23.43;;;22.00;;
11761;SDS011;5938;47.098;15.474;2022-08-19T12:30:01;23.67;;;22.10;;
11761;SDS011;5938;47.098;15.474;2022-08-19T12:34:06;23.17;;;21.77;;
11761;SDS011;5938;47.098;15.474;2022-08-19T12:38:10;25.20;;;23.60;;
11761;SDS011;5938;47.098;15.474;2022-08-19T12:42:15;27.67;;;25.87;;
11761;SDS011;5938;47.098;15.474;2022-08-19T12:46:19;29.50;;;27.67;;
11761;SDS011;5938;47.098;15.474;2022-08-19T12:50:26;29.70;;;27.60;;
11761;SDS011;5938;47.098;15.474;2022-08-19T12:54:29;29.27;;;27.40;;
11761;SDS011;5938;47.098;15.474;2022-08-19T12:58:34;25.80;;;24.50;;
11761;SDS011;5938;47.098;15.474;2022-08-19T13:02:38;28.43;;;26.83;;
11761;SDS011;5938;47.098;15.474;2022-08-19T13:06:42;27.80;;;26.13;;
11761;SDS011;5938;47.098;15.474;2022-08-19T13:10:46;32.70;;;30.90;;
11761;SDS011;5938;47.098;15.474;2022-08-19T13:14:50;39.63;;;37.33;;
11761;SDS011;5938;47.098;15.474;2022-08-19T13:18:54;38.00;;;35.83;;
11761;SDS011;5938;47.098;15.474;2022-08-19T13:22:58;33.27;;;31.37;;
11761;SDS011;5938;47.098;15.474;2022-08-19T13:27:01;37.80;;;35.33;;
11761;SDS011;5938;47.098;15.474;2022-08-19T13:31:07;41.37;;;39.03;;
11761;SDS011;5938;47.098;15.474;2022-08-19T13:35:27;38.90;;;36.87;;
11761;SDS011;5938;47.098;15.474;2022-08-19T13:39:31;33.37;;;31.07;;
11761;SDS011;5938;47.098;15.474;2022-08-19T13:43:35;40.77;;;38.67;;
11761;SDS011;5938;47.098;15.474;2022-08-19T13:47:40;35.07;;;32.83;;
11761;SDS011;5938;47.098;15.474;2022-08-19T13:51:46;27.37;;;25.53;;
11761;SDS011;5938;47.098;15.474;2022-08-19T13:55:49;29.60;;;27.83;;
11761;SDS011;5938;47.098;15.474;2022-08-19T13:59:54;29.97;;;28.17;;
11761;SDS011;5938;47.098;15.474;2022-08-19T14:04:00;31.23;;;29.67;;
11761;SDS011;5938;47.098;15.474;2022-08-19T14:08:03;30.83;;;28.90;;
11761;SDS011;5938;47.098;15.474;2022-08-19T14:12:07;48.97;;;46.47;;
11761;SDS011;5938;47.098;15.474;2022-08-19T14:16:10;47.80;;;45.50;;
11761;SDS011;5938;47.098;15.474;2022-08-19T14:20:18;51.90;;;49.47;;
11761;SDS011;5938;47.098;15.474;2022-08-19T14:24:26;55.73;;;53.13;;
11761;SDS011;5938;47.098;15.474;2022-08-19T14:28:30;46.67;;;44.27;;
11761;SDS011;5938;47.098;15.474;2022-08-19T14:32:33;43.50;;;41.50;;
11761;SDS011;5938;47.098;15.474;2022-08-19T14:36:38;49.47;;;47.13;;
11761;SDS011;5938;47.098;15.474;2022-08-19T14:40:43;47.50;;;45.20;;
11761;SDS011;5938;47.098;15.474;2022-08-19T14:44:47;45.67;;;43.33;;
11761;SDS011;5938;47.098;15.474;2022-08-19T14:48:50;40.53;;;38.37;;
11761;SDS011;5938;47.098;15.474;2022-08-19T14:52:59;45.63;;;43.23;;
11761;SDS011;5938;47.098;15.474;2022-08-19T14:57:13;54.70;;;52.17;;
11761;SDS011;5938;47.098;15.474;2022-08-19T15:01:17;43.87;;;41.77;;
11761;SDS011;5938;47.098;15.474;2022-08-19T15:05:22;40.73;;;38.60;;
11761;SDS011;5938;47.098;15.474;2022-08-19T15:09:27;52.90;;;50.60;;
11761;SDS011;5938;47.098;15.474;2022-08-19T15:13:30;85.57;;;82.23;;
11761;SDS011;5938;47.098;15.474;2022-08-19T15:17:35;47.07;;;44.80;;
11761;SDS011;5938;47.098;15.474;2022-08-19T15:21:46;51.33;;;48.57;;
11761;SDS011;5938;47.098;15.474;2022-08-19T15:25:51;54.90;;;51.83;;
11761;SDS011;5938;47.098;15.474;2022-08-19T15:29:56;55.50;;;52.60;;
11761;SDS011;5938;47.098;15.474;2022-08-19T15:34:02;55.87;;;53.10;;
11761;SDS011;5938;47.098;15.474;2022-08-19T15:38:07;61.50;;;58.73;;
11761;SDS011;5938;47.098;15.474;2022-08-19T15:42:12;68.53;;;65.13;;
11761;SDS011;5938;47.098;15.474;2022-08-19T15:46:30;72.27;;;68.87;;
11761;SDS011;5938;47.098;15.474;2022-08-19T15:50:35;66.30;;;63.17;;
11761;SDS011;5938;47.098;15.474;2022-08-19T15:54:39;89.97;;;86.23;;
11761;SDS011;5938;47.098;15.474;2022-08-19T15:58:44;91.07;;;87.60;;
11761;SDS011;5938;47.098;15.474;2022-08-19T16:03:05;91.57;;;87.57;;
11761;SDS011;5938;47.098;15.474;2022-08-19T16:07:27;87.43;;;83.93;;
11761;SDS011;5938;47.098;15.474;2022-08-19T16:11:32;93.77;;;90.27;;
11761;SDS011;5938;47.098;15.474;2022-08-19T16:15:41;114.00;;;108.93;;
11761;SDS011;5938;47.098;15.474;2022-08-19T16:19:45;97.63;;;93.83;;
11761;SDS011;5938;47.098;15.474;2022-08-19T16:23:54;120.80;;;115.97;;
11761;SDS011;5938;47.098;15.474;2022-08-19T16:27:57;117.67;;;113.43;;
11761;SDS011;5938;47.098;15.474;2022-08-19T16:32:10;141.30;;;135.97;;
11761;SDS011;5938;47.098;15.474;2022-08-19T16:36:14;152.30;;;146.37;;
11761;SDS011;5938;47.098;15.474;2022-08-19T16:40:18;155.67;;;149.67;;
11761;SDS011;5938;47.098;15.474;2022-08-19T16:44:22;142.03;;;136.50;;
11761;SDS011;5938;47.098;15.474;2022-08-19T16:48:31;140.93;;;135.90;;
11761;SDS011;5938;47.098;15.474;2022-08-19T16:52:34;190.27;;;183.57;;
11761;SDS011;5938;47.098;15.474;2022-08-19T16:56:37;197.07;;;190.43;;
11761;SDS011;5938;47.098;15.474;2022-08-19T17:00:41;169.77;;;163.77;;
11761;SDS011;5938;47.098;15.474;2022-08-19T17:04:45;190.83;;;184.33;;
11761;SDS011;5938;47.098;15.474;2022-08-19T17:08:59;202.07;;;194.90;;
11761;SDS011;5938;47.098;15.474;2022-08-19T17:13:03;259.70;;;250.67;;
11761;SDS011;5938;47.098;15.474;2022-08-19T17:17:06;365.43;;;352.37;;
11761;SDS011;5938;47.098;15.474;2022-08-19T17:21:14;385.70;;;371.90;;
11761;SDS011;5938;47.098;15.474;2022-08-19T17:25:18;379.13;;;365.73;;
11761;SDS011;5938;47.098;15.474;2022-08-19T17:29:21;302.73;;;292.17;;
11761;SDS011;5938;47.098;15.474;2022-08-19T17:33:24;186.17;;;179.67;;
11761;SDS011;5938;47.098;15.474;2022-08-19T17:37:29;97.77;;;94.07;;
11761;SDS011;5938;47.098;15.474;2022-08-19T17:41:33;72.00;;;68.57;;
11761;SDS011;5938;47.098;15.474;2022-08-19T17:45:37;69.13;;;66.03;;
11761;SDS011;5938;47.098;15.474;2022-08-19T17:49:42;64.70;;;62.17;;
11761;SDS011;5938;47.098;15.474;2022-08-19T17:53:46;54.73;;;52.53;;
11761;SDS011;5938;47.098;15.474;2022-08-19T17:57:51;55.47;;;52.77;;
11761;SDS011;5938;47.098;15.474;2022-08-19T18:01:54;46.67;;;44.13;;
11761;SDS011;5938;47.098;15.474;2022-08-19T18:05:57;50.30;;;48.00;;
11761;SDS011;5938;47.098;15.474;2022-08-19T18:10:02;48.27;;;45.97;;
11761;SDS011;5938;47.098;15.474;2022-08-19T18:14:06;37.97;;;36.00;;
11761;SDS011;5938;47.098;15.474;2022-08-19T18:18:09;37.50;;;35.33;;
11761;SDS011;5938;47.098;15.474;2022-08-19T18:22:20;32.63;;;30.90;;
11761;SDS011;5938;47.098;15.474;2022-08-19T18:26:27;35.33;;;33.37;;
11761;SDS011;5938;47.098;15.474;2022-08-19T18:30:30;39.87;;;37.93;;
11761;SDS011;5938;47.098;15.474;2022-08-19T18:34:34;37.27;;;35.17;;
11761;SDS011;5938;47.098;15.474;2022-08-19T18:38:38;33.77;;;31.80;;
11761;SDS011;5938;47.098;15.474;2022-08-19T18:43:00;38.17;;;35.63;;
11761;SDS011;5938;47.098;15.474;2022-08-19T18:47:17;37.30;;;35.20;;
11761;SDS011;5938;47.098;15.474;2022-08-19T18:51:40;34.27;;;32.33;;
11761;SDS011;5938;47.098;15.474;2022-08-19T18:55:44;29.33;;;27.73;;
11761;SDS011;5938;47.098;15.474;2022-08-19T18:59:52;25.97;;;24.17;;
11761;SDS011;5938;47.098;15.474;2022-08-19T19:04:01;37.27;;;35.17;;
11761;SDS011;5938;47.098;15.474;2022-08-19T19:08:06;32.63;;;30.73;;
11761;SDS011;5938;47.098;15.474;2022-08-19T19:12:10;34.07;;;32.27;;
11761;SDS011;5938;47.098;15.474;2022-08-19T19:16:16;29.23;;;27.73;;
11761;SDS011;5938;47.098;15.474;2022-08-19T19:20:24;30.20;;;28.53;;
11761;SDS011;5938;47.098;15.474;2022-08-19T19:24:37;42.40;;;40.33;;
11761;SDS011;5938;47.098;15.474;2022-08-19T19:28:44;42.10;;;39.80;;
11761;SDS011;5938;47.098;15.474;2022-08-19T19:32:50;35.27;;;33.37;;
11761;SDS011;5938;47.098;15.474;2022-08-19T19:36:57;41.47;;;39.40;;
11761;SDS011;5938;47.098;15.474;2022-08-19T19:41:01;35.07;;;32.67;;
11761;SDS011;5938;47.098;15.474;2022-08-19T19:45:05;36.73;;;34.60;;
11761;SDS011;5938;47.098;15.474;2022-08-19T19:49:11;34.23;;;32.30;;
11761;SDS011;5938;47.098;15.474;2022-08-19T19:53:15;36.47;;;34.43;;
11761;SDS011;5938;47.098;15.474;2022-08-19T19:57:18;36.03;;;33.87;;
11761;SDS011;5938;47.098;15.474;2022-08-19T20:01:24;33.07;;;30.63;;
11761;SDS011;5938;47.098;15.474;2022-08-19T20:05:29;37.77;;;35.60;;
11761;SDS011;5938;47.098;15.474;2022-08-19T20:09:32;32.77;;;30.87;;
11761;SDS011;5938;47.098;15.474;2022-08-19T20:13:56;33.53;;;31.20;;
11761;SDS011;5938;47.098;15.474;2022-08-19T20:18:01;37.20;;;35.27;;
11761;SDS011;5938;47.098;15.474;2022-08-19T20:22:06;33.20;;;31.17;;
11761;SDS011;5938;47.098;15.474;2022-08-19T20:26:11;37.67;;;35.27;;
11761;SDS011;5938;47.098;15.474;2022-08-19T20:30:32;38.13;;;36.07;;
11761;SDS011;5938;47.098;15.474;2022-08-19T20:34:39;35.20;;;33.10;;
11761;SDS011;5938;47.098;15.474;2022-08-19T20:38:47;30.93;;;29.13;;
11761;SDS011;5938;47.098;15.474;2022-08-19T20:42:50;37.63;;;35.37;;
11761;SDS011;5938;47.098;15.474;2022-08-19T20:46:54;34.07;;;32.33;;
11761;SDS011;5938;47.098;15.474;2022-08-19T20:51:04;37.03;;;35.03;;
11761;SDS011;5938;47.098;15.474;2022-08-19T20:55:10;35.53;;;33.63;;
11761;SDS011;5938;47.098;15.474;2022-08-19T20:59:18;35.67;;;33.47;;
11761;SDS011;5938;47.098;15.474;2022-08-19T21:03:23;42.07;;;39.67;;
11761;SDS011;5938;47.098;15.474;2022-08-19T21:07:27;48.63;;;46.43;;
11761;SDS011;5938;47.098;15.474;2022-08-19T21:11:41;52.40;;;49.83;;
11761;SDS011;5938;47.098;15.474;2022-08-19T21:15:45;47.60;;;45.10;;
11761;SDS011;5938;47.098;15.474;2022-08-19T21:19:48;50.67;;;48.17;;
11761;SDS011;5938;47.098;15.474;2022-08-19T21:23:52;52.60;;;49.63;;
11761;SDS011;5938;47.098;15.474;2022-08-19T21:27:57;40.63;;;38.40;;
11761;SDS011;5938;47.098;15.474;2022-08-19T21:32:00;51.93;;;49.27;;
11761;SDS011;5938;47.098;15.474;2022-08-19T21:36:04;54.30;;;51.73;;
11761;SDS011;5938;47.098;15.474;2022-08-19T21:40:08;48.07;;;45.37;;
11761;SDS011;5938;47.098;15.474;2022-08-19T21:44:13;46.07;;;43.83;;
11761;SDS011;5938;47.098;15.474;2022-08-19T21:48:17;48.03;;;45.67;;
11761;SDS011;5938;47.098;15.474;2022-08-19T21:52:21;57.27;;;54.67;;
11761;SDS011;5938;47.098;15.474;2022-08-19T21:56:25;48.40;;;46.03;;
11761;SDS011;5938;47.098;15.474;2022-08-19T22:00:30;64.57;;;61.77;;
11761;SDS011;5938;47.098;15.474;2022-08-19T22:04:36;51.60;;;48.83;;
11761;SDS011;5938;47.098;15.474;2022-08-19T22:08:41;46.40;;;43.97;;
11761;SDS011;5938;47.098;15.474;2022-08-19T22:12:45;40.50;;;38.30;;
11761;SDS011;5938;47.098;15.474;2022-08-19T22:16:53;45.27;;;42.73;;
11761;SDS011;5938;47.098;15.474;2022-08-19T22:20:56;42.73;;;39.73;;
11761;SDS011;5938;47.098;15.474;2022-08-19T22:25:01;40.43;;;37.93;;
11761;SDS011;5938;47.098;15.474;2022-08-19T22:29:07;40.20;;;38.17;;
11761;SDS011;5938;47.098;15.474;2022-08-19T22:33:16;46.53;;;44.13;;
11761;SDS011;5938;47.098;15.474;2022-08-19T22:37:22;47.30;;;44.67;;
11761;SDS011;5938;47.098;15.474;2022-08-19T22:41:26;42.60;;;40.20;;
11761;SDS011;5938;47.098;15.474;2022-08-19T22:45:29;48.67;;;46.27;;
11761;SDS011;5938;47.098;15.474;2022-08-19T22:49:35;46.20;;;43.87;;
11761;SDS011;5938;47.098;15.474;2022-08-19T22:53:40;46.87;;;44.10;;
11761;SDS011;5938;47.098;15.474;2022-08-19T22:57:45;51.20;;;48.83;;
11761;SDS011;5938;47.098;15.474;2022-08-19T23:01:49;50.37;;;47.93;;
11761;SDS011;5938;47.098;15.474;2022-08-19T23:05:55;47.17;;;44.83;;
11761;SDS011;5938;47.098;15.474;2022-08-19T23:09:59;55.10;;;52.07;;
11761;SDS011;5938;47.098;15.474;2022-08-19T23:14:02;87.90;;;84.00;;
11761;SDS011;5938;47.098;15.474;2022-08-19T23:18:09;83.57;;;79.97;;
11761;SDS011;5938;47.098;15.474;2022-08-19T23:22:15;71.27;;;67.77;;
11761;SDS011;5938;47.098;15.474;2022-08-19T23:26:19;81.57;;;77.27;;
11761;SDS011;5938;47.098;15.474;2022-08-19T23:30:23;63.10;;;60.23;;
11761;SDS011;5938;47.098;15.474;2022-08-19T23:34:28;66.93;;;64.03;;
11761;SDS011;5938;47.098;15.474;2022-08-19T23:38:32;68.97;;;65.67;;
11761;SDS011;5938;47.098;15.474;2022-08-19T23:42:38;70.03;;;66.83;;
11761;SDS011;5938;47.098;15.474;2022-08-19T23:46:42;63.75;;;60.90;;
11761;SDS011;5938;47.098;15.474;2022-08-19T23:50:56;75.40;;;72.10;;
11761;SDS011;5938;47.098;15.474;2022-08-19T23:55:02;69.57;;;66.43;;